Manteo, NC

2:19 AM EDT on September 23, 2017 (GMT -0400)
Dare County Regional

Weather History for KMQI - May, 2012

Change the Weather History Date:

Wednesday, May 30, 2012

  Actual Average Record
Temperature  
Mean Temperature 72 °F -  
Max Temperature 77 °F 74 °F 90 °F (1969)
Min Temperature 66 °F 63 °F 51 °F (2008)
Cooling Degree Days 6    
Growing Degree Days 22 (Base 50)    
Moisture  
Dew Point 67 °F    
Average Humidity 83    
Maximum Humidity 94    
Minimum Humidity 73    
Precipitation  
Precipitation 0.00 in - - ()
Sea Level Pressure  
Sea Level Pressure 29.74 in    
Wind  
Wind Speed 12 mph (SSW)    
Max Wind Speed 30 mph    
Max Gust Speed 44 mph    
Visibility 7 miles    
Events Rain    
Averages and records for this station are not official NWS values.
T = Trace of Precipitation, MM = Missing Value Source: NWS Daily Summary

Daily Weather History Graph

Daily Weather History Graph

Search for Another Location

Airport or City:

Trip Planner

Search our weather history database for the weather conditions in past years. The results will help you decide how hot, cold, wet, or windy it might be!

Date:

Astronomy

May. 30, 2012 Rise Set
Actual Time 5:48 AM EDT 8:12 PM EDT
Civil Twilight 5:18 AM EDT 8:42 PM EDT
Nautical Twilight 4:42 AM EDT 9:19 PM EDT
Astronomical Twilight 4:02 AM EDT 9:59 PM EDT
Moon 2:57 PM EDT (5/30) 2:01 AM EDT (5/30)
Length of Visible Light 15h 23m
Length of Day
14h 24m
Waxing Gibbous, 70% of the Moon is Illuminated
May 30
Waxing Gibbous
Jun 4
Full
Jun 11
Last Quarter
Jun 19
New
Jun 26
First Quarter

Hourly Weather History & Observations

Time (EDT) Temp. Dew Point Humidity Pressure Visibility Wind Dir Wind Speed Gust Speed Precip Events Conditions
12:15 AM 77.0 °F 69.8 °F 78% 29.88 in 10.0 mi SSW 12.7 mph - N/A   Clear
12:35 AM 77.0 °F 69.8 °F 78% 29.88 in 10.0 mi SSW 15.0 mph - N/A   Clear
12:55 AM 77.0 °F 69.8 °F 78% 29.88 in 10.0 mi SSW 12.7 mph - N/A   Clear
1:15 AM 75.2 °F 69.8 °F 83% 29.88 in 10.0 mi SSW 9.2 mph - N/A   Clear
1:35 AM 75.2 °F 69.8 °F 83% 29.87 in 10.0 mi SW 8.1 mph - N/A   Clear
1:55 AM 75.2 °F 69.8 °F 83% 29.86 in 10.0 mi SW 8.1 mph - N/A   Scattered Clouds
2:15 AM 75.2 °F 69.8 °F 83% 29.86 in 10.0 mi SW 8.1 mph - N/A   Clear
2:35 AM 75.2 °F 69.8 °F 83% 29.86 in 10.0 mi SSW 9.2 mph - N/A   Clear
2:55 AM 75.2 °F 69.8 °F 83% 29.85 in 10.0 mi SSW 10.4 mph - N/A   Clear
3:15 AM 75.2 °F 69.8 °F 83% 29.85 in 10.0 mi SW 9.2 mph - N/A   Clear
3:35 AM 75.2 °F 69.8 °F 83% 29.84 in 10.0 mi SSW 9.2 mph - N/A   Clear
3:55 AM 75.2 °F 69.8 °F 83% 29.83 in 10.0 mi SSW 8.1 mph - N/A   Scattered Clouds
4:15 AM 75.2 °F 69.8 °F 83% 29.83 in 10.0 mi SSW 8.1 mph - N/A   Mostly Cloudy
4:35 AM 71.6 °F 66.2 °F 83% 29.83 in 7.0 mi SW 9.2 mph - N/A Rain Light Rain
4:55 AM 73.4 °F 68.0 °F 83% 29.82 in 10.0 mi SW 11.5 mph 16.1 mph N/A   Mostly Cloudy
5:15 AM 71.6 °F 66.2 °F 83% 29.82 in 10.0 mi SSW 12.7 mph - N/A Rain Light Rain
5:35 AM 73.4 °F 68.0 °F 83% 29.82 in 10.0 mi SW 10.4 mph - N/A Rain Light Rain
5:55 AM 73.4 °F 66.2 °F 78% 29.81 in 10.0 mi WSW 11.5 mph - N/A Rain Rain
6:15 AM 71.6 °F 64.4 °F 78% 29.81 in 10.0 mi SW 10.4 mph - N/A Rain Light Rain
6:35 AM 73.4 °F 66.2 °F 78% 29.81 in 10.0 mi WSW 8.1 mph - N/A   Clear
6:55 AM 73.4 °F 68.0 °F 83% 29.81 in 10.0 mi SSW 5.8 mph - N/A   Clear
7:15 AM 73.4 °F 68.0 °F 83% 29.81 in 10.0 mi South 5.8 mph - N/A   Clear
7:35 AM 75.2 °F 69.8 °F 83% 29.81 in 10.0 mi South 4.6 mph - N/A   Clear
7:55 AM 77.0 °F 69.8 °F 78% 29.81 in 10.0 mi South 5.8 mph - N/A   Clear
8:15 AM 75.2 °F 68.0 °F 78% 29.82 in 10.0 mi South 16.1 mph - N/A   Mostly Cloudy
8:35 AM 73.4 °F 66.2 °F 78% 29.81 in 7.0 mi South 10.4 mph - N/A Rain Light Rain
8:55 AM 73.4 °F 64.4 °F 73% 29.81 in 4.0 mi SSW 11.5 mph - N/A Rain Light Rain
9:15 AM 75.2 °F 68.0 °F 78% 29.81 in 10.0 mi South 5.8 mph - N/A   Scattered Clouds
9:35 AM 77.0 °F 69.8 °F 78% 29.80 in 10.0 mi South 9.2 mph - N/A   Scattered Clouds
9:55 AM 77.0 °F 69.8 °F 78% 29.80 in 10.0 mi South 8.1 mph - N/A   Mostly Cloudy
10:15 AM 77.0 °F 69.8 °F 78% 29.79 in 10.0 mi South 8.1 mph - N/A   Scattered Clouds
10:35 AM 77.0 °F 69.8 °F 78% 29.79 in 10.0 mi South 10.4 mph - N/A   Scattered Clouds
10:55 AM 77.0 °F 69.8 °F 78% 29.78 in 10.0 mi South 13.8 mph - N/A   Mostly Cloudy
11:15 AM 77.0 °F 69.8 °F 78% 29.78 in 7.0 mi South 13.8 mph 20.7 mph N/A Rain Light Rain
11:35 AM 77.0 °F 69.8 °F 78% 29.78 in 7.0 mi South 10.4 mph 17.3 mph N/A Rain Light Rain
11:55 AM 77.0 °F 69.8 °F 78% 29.78 in 5.0 mi South 13.8 mph 20.7 mph N/A Rain Light Rain
12:15 PM 77.0 °F 71.6 °F 83% 29.77 in 7.0 mi SSE 9.2 mph - N/A Rain Light Rain
12:35 PM 75.2 °F 69.8 °F 83% 29.74 in 7.0 mi SE 8.1 mph - N/A   Drizzle
12:55 PM 75.2 °F 69.8 °F 83% 29.74 in 4.0 mi SE 9.2 mph - N/A Rain Rain
1:15 PM 73.4 °F 69.8 °F 88% 29.73 in 4.0 mi East 5.8 mph - N/A Rain Rain
1:35 PM 73.4 °F 69.8 °F 88% 29.70 in 1.8 mi East 8.1 mph - N/A Rain Rain
1:55 PM 73.4 °F 69.8 °F 88% 29.68 in 1.2 mi East 11.5 mph - N/A Rain Heavy Rain
2:15 PM 71.6 °F 68.0 °F 88% 29.67 in 1.2 mi ENE 13.8 mph 19.6 mph N/A Rain Heavy Rain
2:35 PM 71.6 °F 68.0 °F 88% 29.63 in 1.0 mi NNE 16.1 mph 21.9 mph N/A Rain Heavy Rain
2:55 PM 69.8 °F 66.2 °F 88% 29.66 in 1.2 mi NNW 6.9 mph 18.4 mph N/A Rain Heavy Rain
3:35 PM 68.0 °F 64.4 °F 88% 29.60 in 1.5 mi NNE 27.6 mph 35.7 mph N/A Rain Light Rain
3:55 PM 68.0 °F 64.4 °F 88% 29.58 in 0.5 mi NNE 25.3 mph 39.1 mph N/A Rain Heavy Rain
4:15 PM 68.0 °F 64.4 °F 88% 29.60 in 0.8 mi NNE 25.3 mph 32.2 mph N/A Rain Heavy Rain
4:35 PM 68.0 °F 64.4 °F 88% 29.57 in 0.8 mi NNE 27.6 mph 36.8 mph N/A Rain Heavy Rain
4:55 PM 68.0 °F 64.4 °F 88% 29.58 in 1.8 mi NNE 29.9 mph 40.3 mph N/A Rain Rain
5:15 PM 66.2 °F 64.4 °F 94% 29.58 in 2.0 mi NNE 25.3 mph 36.8 mph N/A Rain Rain
5:35 PM 66.2 °F 62.6 °F 88% 29.57 in 1.8 mi NNE 27.6 mph 43.7 mph N/A Rain Heavy Rain
5:55 PM 68.0 °F 64.4 °F 88% 29.56 in 1.8 mi NNE 23.0 mph 36.8 mph N/A Rain Rain
6:15 PM 68.0 °F 64.4 °F 88% 29.56 in 3.0 mi NNE 25.3 mph 35.7 mph N/A Rain Rain
6:35 PM 68.0 °F 62.6 °F 83% 29.56 in 4.0 mi NNE 24.2 mph 38.0 mph N/A Rain Light Rain
6:55 PM 68.0 °F 62.6 °F 83% 29.57 in 5.0 mi NNE 24.2 mph 29.9 mph N/A Rain Light Rain
7:15 PM 68.0 °F 62.6 °F 83% 29.58 in 5.0 mi NNE 19.6 mph 29.9 mph N/A   Light Drizzle
7:35 PM 68.0 °F 62.6 °F 83% 29.61 in 5.0 mi North 16.1 mph 25.3 mph N/A   Overcast
7:55 PM 68.0 °F 62.6 °F 83% 29.63 in 7.0 mi North 15.0 mph 26.5 mph N/A   Overcast
8:15 PM 68.0 °F 62.6 °F 83% 29.62 in 7.0 mi North 20.7 mph 31.1 mph N/A   Overcast
8:35 PM 68.0 °F 62.6 °F 83% 29.63 in 10.0 mi North 18.4 mph 33.4 mph N/A   Overcast
8:55 PM 68.0 °F 62.6 °F 83% 29.65 in 10.0 mi North 13.8 mph 23.0 mph N/A   Overcast
9:15 PM 68.0 °F 64.4 °F 88% 29.66 in 10.0 mi North 13.8 mph 20.7 mph N/A   Overcast
9:35 PM 68.0 °F 64.4 °F 88% 29.66 in 10.0 mi North 16.1 mph 25.3 mph N/A   Overcast
9:55 PM 69.8 °F 64.4 °F 83% 29.67 in 10.0 mi North 15.0 mph 28.8 mph N/A   Overcast
10:15 PM 69.8 °F 64.4 °F 83% 29.69 in 10.0 mi North 11.5 mph 20.7 mph N/A   Overcast
10:35 PM 69.8 °F 64.4 °F 83% 29.69 in 10.0 mi North 13.8 mph 24.2 mph N/A   Overcast
10:55 PM 69.8 °F 64.4 °F 83% 29.70 in 10.0 mi North 11.5 mph 23.0 mph N/A   Overcast
11:15 PM 69.8 °F 64.4 °F 83% 29.70 in 10.0 mi North 13.8 mph 20.7 mph N/A   Overcast
11:35 PM 69.8 °F 64.4 °F 83% 29.71 in 10.0 mi NNW 12.7 mph 17.3 mph N/A   Overcast
11:55 PM 71.6 °F 64.4 °F 78% 29.72 in 10.0 mi NW 9.2 mph 17.3 mph N/A   Overcast